Time;durP1;ratioP1;P1;durP2;ratioP2;P2;SDS_P1;SDS_P2;PMS_P1;PMS_P2;Temp;Humidity;BMP_temperature;BMP_pressure;BME280_temperature;BME280_humidity;BME280_pressure;Samples;Min_cycle;Max_cycle;Signal;HPM_P1;HPM_P2
2022/09/17 00:00:51;;;;;;;1.27;1.10;;;;;;;13.83;64.50;99273.19;4977033;28;20176;-75
2022/09/17 00:03:17;;;;;;;6.57;1.60;;;;;;;13.78;64.41;99278.84;4977148;28;20188;-75
2022/09/17 00:05:42;;;;;;;1.83;1.27;;;;;;;13.76;64.41;99279.94;4974782;28;20238;-75
2022/09/17 00:08:12;;;;;;;3.90;1.10;;;;;;;13.71;64.41;99277.66;4975298;28;20211;-75
2022/09/17 00:10:40;;;;;;;1.58;1.10;;;;;;;13.66;63.93;99275.41;4976478;28;20174;-75
2022/09/17 00:13:07;;;;;;;1.30;0.93;;;;;;;13.64;63.97;99276.50;4976817;28;20290;-75
2022/09/17 00:15:42;;;;;;;1.17;1.08;;;;;;;13.67;63.99;99278.91;4974633;28;20432;-75
2022/09/17 00:18:08;;;;;;;2.25;1.25;;;;;;;13.70;63.70;99281.28;4976174;28;20374;-76
2022/09/17 00:20:37;;;;;;;1.10;1.00;;;;;;;13.70;63.39;99287.38;4977250;28;20815;-75
2022/09/17 00:23:03;;;;;;;1.20;0.85;;;;;;;13.70;63.41;99281.28;4974746;28;20181;-75
2022/09/17 00:25:28;;;;;;;1.90;1.10;;;;;;;13.70;63.49;99286.56;4954748;28;20590;-75
2022/09/17 00:27:54;;;;;;;1.53;1.00;;;;;;;13.66;63.48;99287.75;4974102;28;20189;-75
2022/09/17 00:30:19;;;;;;;1.40;1.13;;;;;;;13.66;63.49;99290.41;4973848;28;20203;-75
2022/09/17 00:32:44;;;;;;;3.10;1.20;;;;;;;13.65;63.40;99291.38;4975683;28;20486;-76
2022/09/17 00:35:10;;;;;;;1.10;0.90;;;;;;;13.65;63.63;99302.75;4973130;28;20253;-75
2022/09/17 00:37:35;;;;;;;1.13;1.00;;;;;;;13.64;63.35;99297.63;4975680;28;20202;-75
2022/09/17 00:40:01;;;;;;;1.10;0.97;;;;;;;13.62;63.41;99294.25;4975712;28;20545;-75
2022/09/17 00:42:26;;;;;;;1.57;1.10;;;;;;;13.61;63.45;99298.72;4975971;28;20203;-75
2022/09/17 00:44:55;;;;;;;1.63;0.90;;;;;;;13.57;63.67;99292.00;4975064;28;20398;-75
2022/09/17 00:47:35;;;;;;;1.38;1.00;;;;;;;13.55;63.77;99298.34;4973993;28;20200;-75
2022/09/17 00:50:06;;;;;;;3.08;1.20;;;;;;;13.55;63.75;99293.06;4975685;28;20195;-75
2022/09/17 00:52:36;;;;;;;2.53;0.93;;;;;;;13.55;63.75;99287.78;4975819;28;20220;-75
2022/09/17 00:55:12;;;;;;;1.45;0.77;;;;;;;13.54;63.92;99299.31;4975646;28;20724;-75
2022/09/17 00:57:39;;;;;;;1.10;1.00;;;;;;;13.47;63.85;99297.19;4974950;28;20470;-75
2022/09/17 01:00:07;;;;;;;1.23;0.90;;;;;;;13.46;64.06;99298.13;4975176;28;20205;-75
2022/09/17 01:02:33;;;;;;;3.72;1.08;;;;;;;13.39;63.90;99302.22;4975733;28;20202;-75
2022/09/17 01:04:59;;;;;;;1.00;0.90;;;;;;;13.28;63.94;99302.25;4975136;28;20201;-75
2022/09/17 01:07:49;;;;;;;1.20;1.10;;;;;;;13.19;63.75;99308.22;4973946;28;20227;-75
2022/09/17 01:10:45;;;;;;;1.88;1.42;;;;;;;13.10;63.59;99306.31;4976172;28;20586;-75
2022/09/17 01:13:18;;;;;;;2.78;1.00;;;;;;;13.06;63.79;99309.19;4975378;28;20208;-75
2022/09/17 01:16:03;;;;;;;1.20;0.88;;;;;;;13.02;63.75;99307.75;4972861;28;20564;-75
2022/09/17 01:18:56;;;;;;;1.38;0.90;;;;;;;13.02;63.81;99310.41;4974864;28;20207;-75
2022/09/17 01:21:37;;;;;;;1.40;0.80;;;;;;;13.02;63.77;99313.03;4974771;28;20823;-75
2022/09/17 01:24:39;;;;;;;2.97;1.45;;;;;;;13.03;63.76;99319.13;4974284;28;20346;-75
2022/09/17 01:27:10;;;;;;;1.77;0.88;;;;;;;13.02;63.78;99322.75;4972823;28;20990;-75
2022/09/17 01:30:06;;;;;;;2.08;0.90;;;;;;;13.00;63.84;99327.28;4975073;28;20275;-75
2022/09/17 01:32:56;;;;;;;1.77;0.77;;;;;;;12.99;63.94;99329.09;4975740;28;20216;-75
2022/09/17 01:35:42;;;;;;;1.70;0.80;;;;;;;12.98;63.73;99327.41;4972506;28;20224;-75
2022/09/17 01:38:19;;;;;;;2.08;0.90;;;;;;;12.97;63.79;99333.63;4974460;28;20203;-75
2022/09/17 01:41:02;;;;;;;2.10;0.98;;;;;;;12.95;63.57;99340.00;4975028;28;20221;-75
2022/09/17 01:43:57;;;;;;;1.58;0.90;;;;;;;12.89;63.68;99332.56;4976264;28;20242;-75
2022/09/17 01:46:42;;;;;;;1.20;1.08;;;;;;;12.85;63.63;99334.59;4972469;28;20778;-75
2022/09/17 01:49:09;;;;;;;1.35;0.95;;;;;;;12.85;63.51;99337.22;4974260;28;20198;-75
2022/09/17 01:51:40;;;;;;;0.88;0.80;;;;;;;12.83;63.44;99333.88;4975719;28;20759;-75
2022/09/17 01:54:10;;;;;;;2.38;0.80;;;;;;;12.82;63.38;99332.19;4972465;28;20304;-75
2022/09/17 01:56:42;;;;;;;1.30;1.20;;;;;;;12.83;63.29;99336.53;4973736;28;20682;-75
2022/09/17 01:59:17;;;;;;;1.45;1.13;;;;;;;12.84;63.23;99333.75;4973719;28;20204;-75
2022/09/17 02:01:48;;;;;;;1.10;1.00;;;;;;;12.85;63.11;99326.66;4977240;28;20190;-75
2022/09/17 02:04:33;;;;;;;1.25;0.93;;;;;;;12.83;63.00;99329.44;4978444;28;20220;-75
2022/09/17 02:07:08;;;;;;;1.27;0.70;;;;;;;12.78;63.05;99328.97;4977548;28;20657;-74
2022/09/17 02:09:44;;;;;;;0.70;0.70;;;;;;;12.76;63.13;99325.59;4978630;28;20715;-75
2022/09/17 02:12:17;;;;;;;1.08;0.82;;;;;;;12.77;63.05;99323.78;4978677;28;20221;-75
2022/09/17 02:14:55;;;;;;;3.55;1.13;;;;;;;12.79;63.18;99321.88;4978265;28;20909;-75
2022/09/17 02:17:43;;;;;;;1.20;1.05;;;;;;;12.81;63.22;99320.81;4976059;28;20196;-75
2022/09/17 02:20:09;;;;;;;1.30;1.20;;;;;;;12.81;63.28;99328.72;4977907;28;20766;-75
2022/09/17 02:22:40;;;;;;;0.90;0.82;;;;;;;12.82;63.06;99321.66;4979448;28;20572;-75
2022/09/17 02:25:15;;;;;;;1.10;0.70;;;;;;;12.84;62.97;99315.28;4976338;28;20232;-74
2022/09/17 02:27:55;;;;;;;1.42;0.98;;;;;;;12.86;63.01;99317.81;4975085;28;20197;-75
2022/09/17 02:30:20;;;;;;;3.40;0.80;;;;;;;12.86;63.02;99324.91;4975971;28;20191;-75
2022/09/17 02:32:46;;;;;;;1.80;1.00;;;;;;;12.87;63.13;99326.56;4978092;28;20211;-75
2022/09/17 02:35:13;;;;;;;1.38;0.85;;;;;;;12.89;63.21;99316.75;4976676;28;20287;-74
2022/09/17 02:37:40;;;;;;;0.80;0.75;;;;;;;12.89;63.22;99317.59;4975917;28;20393;-74
2022/09/17 02:40:06;;;;;;;1.08;0.90;;;;;;;12.92;63.29;99317.34;4978827;28;20239;-75
2022/09/17 02:42:51;;;;;;;1.40;1.30;;;;;;;12.97;63.58;99322.25;4978470;28;20199;-76
2022/09/17 02:45:45;;;;;;;2.40;1.00;;;;;;;12.95;63.67;99326.81;4976130;28;20213;-75
2022/09/17 02:48:36;;;;;;;1.92;1.27;;;;;;;12.92;63.66;99327.06;4976191;28;20552;-74
2022/09/17 02:51:02;;;;;;;1.00;0.65;;;;;;;12.95;63.78;99319.72;4976892;28;20750;-75
2022/09/17 02:53:45;;;;;;;1.27;0.77;;;;;;;12.99;63.72;99321.19;4990194;28;20206;-75
2022/09/17 02:56:27;;;;;;;2.97;0.90;;;;;;;13.02;63.83;99325.38;4975842;28;20226;-74
2022/09/17 02:59:25;;;;;;;1.35;0.85;;;;;;;13.02;63.81;99323.56;4977078;28;20193;-75
2022/09/17 03:02:06;;;;;;;1.65;1.55;;;;;;;13.04;63.86;99332.22;4974511;28;20211;-74
2022/09/17 03:04:33;;;;;;;0.80;0.80;;;;;;;13.05;63.79;99328.59;4975262;28;20192;-74
2022/09/17 03:07:04;;;;;;;1.30;1.02;;;;;;;13.06;63.62;99334.72;4977291;28;20228;-75
2022/09/17 03:09:30;;;;;;;1.58;1.00;;;;;;;13.08;63.51;99348.63;4977064;28;20208;-75
2022/09/17 03:11:55;;;;;;;1.00;0.80;;;;;;;13.10;63.59;99340.59;4991390;28;20227;-75
2022/09/17 03:14:21;;;;;;;1.53;1.03;;;;;;;13.12;63.50;99343.94;4977285;28;20289;-75
2022/09/17 03:16:46;;;;;;;0.80;0.77;;;;;;;13.13;63.48;99341.19;4976698;28;20211;-75
2022/09/17 03:19:12;;;;;;;1.00;0.80;;;;;;;13.14;63.72;99340.22;4974706;28;20566;-75
2022/09/17 03:21:37;;;;;;;1.10;1.00;;;;;;;13.12;63.98;99338.66;4976731;28;20183;-75
2022/09/17 03:24:03;;;;;;;4.70;1.20;;;;;;;13.07;64.23;99346.97;4977120;28;20477;-75
2022/09/17 03:26:28;;;;;;;1.30;1.00;;;;;;;13.02;64.69;99341.19;4973635;28;20811;-75
2022/09/17 03:28:54;;;;;;;2.70;1.00;;;;;;;13.01;65.00;99358.78;4976190;28;20679;-75
2022/09/17 03:31:19;;;;;;;1.43;0.90;;;;;;;13.02;65.54;99344.66;4975729;28;20521;-74
2022/09/17 03:33:45;;;;;;;1.87;1.03;;;;;;;13.01;65.98;99352.69;4977675;28;20193;-76
2022/09/17 03:36:10;;;;;;;1.80;1.10;;;;;;;13.02;66.13;99344.66;4974139;28;20209;-74
2022/09/17 03:38:37;;;;;;;4.10;1.23;;;;;;;13.03;66.27;99359.53;4976484;28;20279;-75
2022/09/17 03:41:06;;;;;;;1.10;1.00;;;;;;;12.96;66.48;99350.44;4975152;28;20190;-75
2022/09/17 03:43:31;;;;;;;2.35;1.02;;;;;;;12.93;66.65;99352.44;4977244;28;20185;-74
2022/09/17 03:45:56;;;;;;;2.57;0.93;;;;;;;12.89;66.72;99359.75;4975302;28;20874;-76
2022/09/17 03:48:22;;;;;;;2.40;1.00;;;;;;;12.85;66.75;99363.56;4975141;28;20329;-74
2022/09/17 03:50:48;;;;;;;2.03;0.90;;;;;;;12.83;66.99;99360.25;4975151;28;20189;-74
2022/09/17 03:53:14;;;;;;;1.90;1.20;;;;;;;12.83;67.12;99368.16;4977107;28;20201;-75
2022/09/17 03:55:40;;;;;;;2.65;1.30;;;;;;;12.84;67.11;99367.19;4973475;28;20246;-75
2022/09/17 03:58:05;;;;;;;2.25;0.93;;;;;;;12.86;67.05;99365.28;4976103;28;20185;-75
2022/09/17 04:00:32;;;;;;;3.07;1.13;;;;;;;12.90;66.89;99371.97;4974725;28;20199;-74
2022/09/17 04:02:57;;;;;;;1.00;0.90;;;;;;;12.95;66.94;99369.00;4976843;28;20193;-74
2022/09/17 04:05:23;;;;;;;1.27;1.07;;;;;;;12.97;66.70;99380.25;4975098;28;20840;-75
2022/09/17 04:07:48;;;;;;;2.80;1.00;;;;;;;12.98;66.77;99376.66;4966653;28;20451;-75
2022/09/17 04:10:14;;;;;;;1.50;1.40;;;;;;;12.96;66.90;99374.16;4976101;28;20197;-75
2022/09/17 04:12:39;;;;;;;3.67;1.37;;;;;;;12.98;66.86;99374.03;4974967;28;20219;-75
2022/09/17 04:15:05;;;;;;;2.03;0.90;;;;;;;12.96;66.92;99366.25;4976522;28;20683;-75
2022/09/17 04:17:31;;;;;;;1.50;0.80;;;;;;;12.95;66.95;99372.47;4975576;28;20709;-75
2022/09/17 04:19:57;;;;;;;1.83;1.03;;;;;;;12.96;67.17;99374.16;4974320;28;20209;-74
2022/09/17 04:22:23;;;;;;;1.20;1.10;;;;;;;12.96;67.01;99376.78;4976836;28;20204;-75
2022/09/17 04:24:48;;;;;;;3.00;1.33;;;;;;;12.94;67.24;99378.69;4975990;28;20206;-75
2022/09/17 04:27:13;;;;;;;1.70;1.10;;;;;;;12.95;67.29;99375.09;4975507;28;20857;-75
2022/09/17 04:29:39;;;;;;;2.10;1.33;;;;;;;12.96;66.83;99379.44;4974592;28;20200;-74
2022/09/17 04:32:04;;;;;;;1.30;1.00;;;;;;;12.95;66.90;99375.09;4975196;28;20222;-74
2022/09/17 04:34:30;;;;;;;1.83;1.30;;;;;;;12.95;66.76;99377.72;4977715;28;20215;-75
2022/09/17 04:36:56;;;;;;;2.25;1.00;;;;;;;12.98;66.69;99377.50;4974729;28;20225;-75
2022/09/17 04:39:21;;;;;;;4.33;1.40;;;;;;;13.02;66.32;99380.75;4973785;28;20528;-75
2022/09/17 04:41:47;;;;;;;1.87;1.13;;;;;;;13.05;66.26;99383.97;4974274;28;20360;-75
2022/09/17 04:44:15;;;;;;;1.03;0.83;;;;;;;13.07;66.02;99391.78;4975402;28;20211;-75
2022/09/17 04:46:41;;;;;;;1.05;0.95;;;;;;;13.06;65.93;99393.56;4974813;28;20217;-75
2022/09/17 04:49:07;;;;;;;1.50;1.40;;;;;;;13.05;65.97;99397.16;4972936;28;20516;-75
2022/09/17 04:51:33;;;;;;;1.45;1.00;;;;;;;13.06;65.71;99404.09;4975008;28;20509;-75
2022/09/17 04:53:58;;;;;;;1.80;1.20;;;;;;;13.05;65.55;99402.44;4977523;28;20680;-74
2022/09/17 04:56:24;;;;;;;2.20;1.67;;;;;;;13.02;65.38;99402.69;4976113;28;20300;-75
2022/09/17 04:58:49;;;;;;;1.57;1.47;;;;;;;12.94;65.47;99398.97;4974471;28;20645;-74
2022/09/17 05:01:17;;;;;;;1.63;1.37;;;;;;;12.83;65.79;99402.41;4974186;28;20188;-76
2022/09/17 05:03:43;;;;;;;3.58;1.52;;;;;;;12.74;66.47;99413.63;4975889;28;20622;-76
2022/09/17 05:06:08;;;;;;;1.77;1.20;;;;;;;12.62;67.27;99418.88;4976295;28;20227;-76
2022/09/17 05:08:34;;;;;;;2.03;1.57;;;;;;;12.56;67.23;99418.53;4972940;28;20441;-76
2022/09/17 05:10:59;;;;;;;4.63;1.50;;;;;;;12.55;67.54;99414.19;4973217;28;20255;-76
2022/09/17 05:13:25;;;;;;;1.60;1.30;;;;;;;12.59;67.70;99416.47;4975810;28;20269;-76
2022/09/17 05:15:50;;;;;;;3.07;1.50;;;;;;;12.61;67.88;99421.66;4975588;28;20581;-76
2022/09/17 05:18:15;;;;;;;1.67;1.40;;;;;;;12.62;67.84;99421.53;4975432;28;20670;-76
2022/09/17 05:20:42;;;;;;;1.03;0.93;;;;;;;12.65;68.00;99424.88;4972874;28;20230;-76
2022/09/17 05:23:07;;;;;;;2.10;1.40;;;;;;;12.66;68.14;99423.91;4975655;28;20637;-76
2022/09/17 05:25:33;;;;;;;2.00;1.80;;;;;;;12.64;68.24;99416.16;4974004;28;20275;-76
2022/09/17 05:28:00;;;;;;;2.53;1.50;;;;;;;12.62;68.34;99421.53;4967787;28;20662;-75
2022/09/17 05:30:25;;;;;;;2.10;1.60;;;;;;;12.62;68.54;99423.31;4971921;28;20194;-76
2022/09/17 05:33:01;;;;;;;2.93;2.13;;;;;;;12.61;68.50;99417.22;4971960;28;20226;-75
2022/09/17 05:35:28;;;;;;;1.80;1.50;;;;;;;12.65;68.32;99424.88;4973706;28;20265;-76
2022/09/17 05:38:00;;;;;;;2.50;1.73;;;;;;;12.68;68.32;99420.22;4974450;28;20187;-76
2022/09/17 05:40:26;;;;;;;4.22;1.50;;;;;;;12.71;68.11;99427.06;4973603;28;20838;-76
2022/09/17 05:42:57;;;;;;;4.20;2.00;;;;;;;12.76;68.02;99432.81;4975047;28;20200;-76
2022/09/17 05:45:22;;;;;;;5.15;2.00;;;;;;;12.80;68.08;99442.19;4974484;28;20473;-76
2022/09/17 05:47:54;;;;;;;1.97;1.80;;;;;;;12.81;68.07;99446.50;4974739;28;21015;-75
2022/09/17 05:50:19;;;;;;;3.75;1.67;;;;;;;12.80;68.22;99444.81;4974857;28;20554;-75
2022/09/17 05:52:44;;;;;;;5.03;2.27;;;;;;;12.82;68.59;99440.25;4975188;28;20279;-75
2022/09/17 05:55:10;;;;;;;2.23;1.90;;;;;;;12.83;68.45;99450.69;4975912;28;20244;-75
2022/09/17 05:57:35;;;;;;;2.57;1.70;;;;;;;12.87;68.60;99453.09;4974459;28;20205;-75
2022/09/17 06:00:02;;;;;;;5.93;2.53;;;;;;;12.88;68.25;99447.72;4972966;28;20294;-76
2022/09/17 06:02:37;;;;;;;1.92;1.73;;;;;;;12.91;68.85;99451.88;4976093;28;20198;-76
2022/09/17 06:05:04;;;;;;;3.97;2.20;;;;;;;12.91;68.73;99460.66;4974911;28;20267;-76
2022/09/17 06:07:30;;;;;;;4.10;2.00;;;;;;;12.95;68.79;99462.09;4973634;28;20199;-75
2022/09/17 06:09:55;;;;;;;5.40;3.15;;;;;;;13.00;69.08;99459.13;4974095;28;20214;-76
2022/09/17 06:12:21;;;;;;;2.50;2.30;;;;;;;13.06;69.05;99462.13;4975219;28;20288;-75
2022/09/17 06:14:47;;;;;;;6.20;2.17;;;;;;;13.14;68.94;99460.69;4977352;28;20219;-74
2022/09/17 06:17:12;;;;;;;3.73;2.33;;;;;;;13.24;68.59;99466.97;4974510;28;20204;-76
2022/09/17 06:19:38;;;;;;;1.87;1.67;;;;;;;13.35;68.33;99468.81;4974035;28;20197;-76
2022/09/17 06:22:04;;;;;;;1.77;1.63;;;;;;;13.44;67.59;99473.34;4974628;28;20210;-76
2022/09/17 06:24:31;;;;;;;1.50;1.40;;;;;;;13.50;67.14;99465.81;4974971;28;20287;-76
2022/09/17 06:26:56;;;;;;;4.32;1.70;;;;;;;13.55;66.93;99472.50;4974399;28;20688;-76
2022/09/17 06:29:22;;;;;;;4.00;1.97;;;;;;;13.60;66.62;99475.63;4973462;28;20416;-75
2022/09/17 06:31:48;;;;;;;2.30;1.43;;;;;;;13.63;66.00;99476.22;4974535;28;20862;-75
2022/09/17 06:34:14;;;;;;;4.00;1.92;;;;;;;13.58;65.58;99478.38;4974117;28;20206;-75
2022/09/17 06:36:40;;;;;;;3.43;1.70;;;;;;;13.55;65.83;99481.25;4973146;28;20226;-75
2022/09/17 06:39:06;;;;;;;2.17;1.30;;;;;;;13.55;65.68;99480.44;4978221;28;20202;-75
2022/09/17 06:41:32;;;;;;;2.00;1.80;;;;;;;13.54;65.39;99476.13;4973331;28;20843;-76
2022/09/17 06:43:57;;;;;;;4.20;2.00;;;;;;;13.53;65.11;99469.16;4974441;28;20199;-75
2022/09/17 06:46:23;;;;;;;3.13;1.60;;;;;;;13.46;64.76;99474.06;4973035;28;20852;-76
2022/09/17 06:48:48;;;;;;;1.57;1.47;;;;;;;13.43;64.95;99480.44;4634320;28;10005092;-75
2022/09/17 06:51:13;;;;;;;1.90;1.80;;;;;;;13.46;65.08;99477.56;4979524;28;20310;-75
2022/09/17 06:53:39;;;;;;;2.40;1.63;;;;;;;13.50;64.84;99480.78;4979224;28;20271;-75
2022/09/17 06:56:07;;;;;;;5.50;1.80;;;;;;;13.55;64.72;99486.53;4978152;28;20482;-75
2022/09/17 06:58:36;;;;;;;2.17;1.98;;;;;;;13.62;64.29;99494.84;4979872;28;20844;-75
2022/09/17 07:01:02;;;;;;;2.70;1.70;;;;;;;13.69;64.32;99488.97;4977017;28;20185;-76
2022/09/17 07:03:30;;;;;;;1.60;1.50;;;;;;;13.77;63.56;99492.78;4977608;28;20264;-75
2022/09/17 07:05:56;;;;;;;2.28;2.13;;;;;;;13.76;63.20;99497.22;4977624;28;20870;-75
2022/09/17 07:08:22;;;;;;;2.33;1.73;;;;;;;13.76;63.05;99499.03;4975585;28;20201;-75
2022/09/17 07:10:47;;;;;;;5.90;1.70;;;;;;;13.74;62.79;99493.84;4978214;28;20202;-75
2022/09/17 07:13:13;;;;;;;2.60;1.70;;;;;;;13.74;62.51;99499.13;4976948;28;20186;-76
2022/09/17 07:15:38;;;;;;;1.57;1.47;;;;;;;13.77;62.20;99495.41;4977529;28;20240;-75
2022/09/17 07:18:10;;;;;;;2.67;1.77;;;;;;;13.83;61.61;99506.34;4976017;28;20191;-76
2022/09/17 07:20:37;;;;;;;2.13;1.67;;;;;;;13.99;61.57;99500.72;4977814;28;20290;-73
2022/09/17 07:23:03;;;;;;;4.20;1.60;;;;;;;14.17;61.00;99495.72;4975876;28;20181;-73
2022/09/17 07:25:28;;;;;;;1.93;1.40;;;;;;;14.30;60.39;99493.78;4977070;28;20255;-76
2022/09/17 07:27:53;;;;;;;5.70;1.77;;;;;;;14.39;60.20;99495.69;4974860;28;20193;-75
2022/09/17 07:30:19;;;;;;;4.27;1.83;;;;;;;14.48;59.83;99501.19;4975524;28;20646;-75
2022/09/17 07:32:45;;;;;;;8.30;2.17;;;;;;;14.54;59.35;99498.06;4976762;28;20190;-76
2022/09/17 07:35:11;;;;;;;2.27;1.87;;;;;;;14.63;58.55;99502.59;4975410;28;20490;-75
2022/09/17 07:37:37;;;;;;;2.33;1.80;;;;;;;14.76;58.25;99497.16;4976290;28;20434;-75
2022/09/17 07:40:05;;;;;;;2.77;1.80;;;;;;;14.93;58.06;99503.66;4977432;28;20670;-75
2022/09/17 07:42:31;;;;;;;2.55;1.55;;;;;;;15.07;57.66;99503.38;4982021;28;20186;-76
2022/09/17 07:44:56;;;;;;;2.30;1.80;;;;;;;15.14;56.96;99501.88;4981980;28;20248;-75
2022/09/17 07:47:22;;;;;;;4.33;2.00;;;;;;;15.14;56.45;99516.91;4979591;28;20225;-75
2022/09/17 07:49:47;;;;;;;1.40;1.30;;;;;;;15.12;56.31;99505.63;4982607;28;20205;-76
2022/09/17 07:52:12;;;;;;;2.20;1.63;;;;;;;15.21;56.22;99508.34;4982056;28;20238;-75
2022/09/17 07:54:38;;;;;;;1.93;1.63;;;;;;;15.43;55.70;99511.81;4981367;28;20275;-76
2022/09/17 07:57:04;;;;;;;3.63;2.03;;;;;;;15.71;54.79;99515.59;4978832;28;20221;-76
2022/09/17 07:59:30;;;;;;;1.73;1.58;;;;;;;15.88;54.48;99514.97;4981052;28;20193;-76
2022/09/17 08:01:55;;;;;;;2.97;2.20;;;;;;;15.79;54.34;99512.28;4982712;28;20654;-76
2022/09/17 08:04:21;;;;;;;2.70;1.70;;;;;;;15.51;55.05;99525.22;4982114;28;20247;-76
2022/09/17 08:06:47;;;;;;;2.05;1.85;;;;;;;15.34;55.80;99518.72;5078966;23;20644;-76
2022/09/17 08:09:14;;;;;;;4.83;3.50;;;;;;;15.26;56.32;99514.06;4964533;28;20287;-76
2022/09/17 08:11:40;;;;;;;12.88;7.47;;;;;;;15.14;56.67;99520.41;4979187;28;20477;-76
2022/09/17 08:14:10;;;;;;;4.55;3.15;;;;;;;14.98;57.27;99527.94;4980854;28;20532;-75
2022/09/17 08:16:35;;;;;;;9.45;4.90;;;;;;;14.87;57.06;99530.63;4980588;28;20205;-76
2022/09/17 08:19:01;;;;;;;9.20;6.20;;;;;;;14.78;56.96;99530.44;4978843;28;20193;-76
2022/09/17 08:21:26;;;;;;;5.90;3.80;;;;;;;14.72;56.89;99527.47;4981248;28;20260;-76
2022/09/17 08:23:52;;;;;;;4.13;3.17;;;;;;;14.69;56.98;99532.97;4980435;28;20562;-76
2022/09/17 08:26:21;;;;;;;2.23;1.90;;;;;;;14.64;57.34;99538.66;4978391;28;20583;-76
2022/09/17 08:28:53;;;;;;;2.00;1.85;;;;;;;14.61;57.60;99536.28;4980647;28;20193;-75
2022/09/17 08:31:20;;;;;;;4.00;2.33;;;;;;;14.59;57.93;99530.25;4980731;28;20938;-76
2022/09/17 08:33:46;;;;;;;7.57;3.25;;;;;;;14.59;57.85;99527.63;4981711;28;20231;-76
2022/09/17 08:36:13;;;;;;;3.80;2.47;;;;;;;14.58;57.63;99536.50;4981274;28;20219;-77
2022/09/17 08:38:39;;;;;;;1.65;1.45;;;;;;;14.59;57.67;99538.19;4979453;28;20692;-75
2022/09/17 08:41:39;;;;;;;2.70;1.90;;;;;;;14.67;57.41;99540.22;4981914;28;20204;-75
2022/09/17 08:44:07;;;;;;;1.38;1.27;;;;;;;14.80;57.38;99546.19;4979140;28;20657;-77
2022/09/17 08:46:37;;;;;;;3.20;1.30;;;;;;;14.92;56.82;99546.97;4980272;28;20874;-76
2022/09/17 08:49:24;;;;;;;6.07;1.95;;;;;;;15.05;56.61;99548.47;4978642;28;20529;-76
2022/09/17 08:51:52;;;;;;;2.28;1.40;;;;;;;15.27;55.57;99546.66;4980502;28;20221;-76
2022/09/17 08:54:31;;;;;;;1.52;1.25;;;;;;;15.53;54.30;99551.56;4978946;28;20286;-76
2022/09/17 08:57:25;;;;;;;1.20;1.10;;;;;;;15.76;53.85;99565.50;4977966;28;20259;-77
2022/09/17 09:00:08;;;;;;;9.85;2.60;;;;;;;16.01;53.40;99557.09;4977113;28;20662;-77
2022/09/17 09:02:59;;;;;;;1.80;1.40;;;;;;;16.21;52.54;99563.34;4961840;28;20195;-76
2022/09/17 09:05:32;;;;;;;1.65;1.30;;;;;;;16.22;52.59;99553.56;4979757;28;20200;-76
2022/09/17 09:08:04;;;;;;;2.05;1.60;;;;;;;16.10;52.34;99555.50;4980553;28;20233;-76
2022/09/17 09:10:51;;;;;;;1.65;1.45;;;;;;;15.97;52.71;99554.88;4979510;28;20207;-78
2022/09/17 09:13:21;;;;;;;1.73;1.55;;;;;;;15.80;53.07;99557.19;4979107;28;20189;-76
2022/09/17 09:15:53;;;;;;;1.92;1.30;;;;;;;15.63;53.19;99568.34;4978872;28;20844;-76
2022/09/17 09:18:21;;;;;;;1.27;1.17;;;;;;;15.50;53.53;99555.31;4981111;28;20490;-76
2022/09/17 09:20:56;;;;;;;1.33;1.20;;;;;;;15.48;53.67;99557.25;4978005;28;20193;-76
2022/09/17 09:26:16;;;;;;;2.55;1.45;;;;;;;15.63;53.37;99560.38;4797399;26;20233;-76
2022/09/17 09:28:44;;;;;;;1.73;1.38;;;;;;;15.79;53.10;99562.59;4980067;28;20556;-75
2022/09/17 09:31:40;;;;;;;4.40;1.73;;;;;;;15.93;53.16;99562.25;4981820;28;20202;-74
2022/09/17 09:34:08;;;;;;;2.45;1.30;;;;;;;16.00;52.92;99567.84;4979087;28;20185;-75
2022/09/17 09:36:37;;;;;;;1.63;1.42;;;;;;;15.97;52.69;99560.19;4979812;28;20210;-75
2022/09/17 09:39:14;;;;;;;6.75;2.40;;;;;;;15.89;52.76;99566.13;4981797;28;20231;-77
2022/09/17 09:41:48;;;;;;;1.77;1.63;;;;;;;15.86;53.03;99566.41;4981515;28;20876;-74
2022/09/17 09:44:15;;;;;;;4.95;2.92;;;;;;;15.86;53.36;99569.06;4978895;28;20212;-75
2022/09/17 09:46:54;;;;;;;4.70;1.40;;;;;;;15.81;53.66;99573.91;4980908;28;20253;-78
2022/09/17 09:49:45;;;;;;;3.10;1.50;;;;;;;15.73;53.95;99571.06;4979447;28;20192;-79
2022/09/17 09:52:36;;;;;;;2.63;1.40;;;;;;;15.63;54.61;99577.09;4981260;28;20233;-75
2022/09/17 09:55:21;;;;;;;1.60;1.50;;;;;;;15.62;54.33;99579.91;4978508;28;20239;-75
2022/09/17 09:58:03;;;;;;;3.05;1.40;;;;;;;15.61;54.08;99573.78;4980484;28;20189;-75
2022/09/17 10:00:38;;;;;;;2.22;2.03;;;;;;;15.63;54.05;99573.63;4981154;28;20654;-75
2022/09/17 10:03:21;;;;;;;1.63;1.48;;;;;;;15.63;53.88;99576.28;4978922;28;20181;-75
2022/09/17 10:06:03;;;;;;;2.75;1.80;;;;;;;15.74;53.59;99578.03;4977482;28;20208;-75
2022/09/17 10:08:35;;;;;;;4.47;2.78;;;;;;;15.95;53.25;99576.19;4980397;28;20186;-75
2022/09/17 10:11:12;;;;;;;3.17;1.60;;;;;;;16.12;52.81;99575.59;4979572;28;20275;-77
2022/09/17 10:13:39;;;;;;;3.60;1.55;;;;;;;16.20;52.49;99582.00;4981095;28;20203;-78
2022/09/17 10:16:25;;;;;;;2.45;1.67;;;;;;;16.28;52.27;99575.09;4978536;28;20220;-76
2022/09/17 10:19:12;;;;;;;3.63;1.52;;;;;;;16.46;52.21;99566.47;4980195;28;20256;-75
2022/09/17 10:21:41;;;;;;;2.50;1.70;;;;;;;16.66;51.55;99568.19;4979634;28;20205;-79
2022/09/17 10:24:26;;;;;;;2.20;1.45;;;;;;;16.78;50.85;99566.28;4982574;28;20263;-77
2022/09/17 10:27:00;;;;;;;2.08;1.33;;;;;;;16.83;50.75;99561.41;4983846;28;20351;-77
2022/09/17 10:29:26;;;;;;;2.28;2.08;;;;;;;16.92;50.18;99565.03;4982611;28;20717;-77
2022/09/17 10:31:54;;;;;;;1.60;1.20;;;;;;;17.00;49.75;99558.03;4984097;28;20224;-75
2022/09/17 10:34:22;;;;;;;1.63;1.30;;;;;;;17.12;49.37;99555.22;4983091;28;20738;-75
2022/09/17 10:36:48;;;;;;;2.40;1.30;;;;;;;17.20;49.03;99563.31;4982967;28;20208;-78
2022/09/17 10:39:25;;;;;;;2.23;1.43;;;;;;;17.23;48.50;99563.06;4982479;28;20190;-79
2022/09/17 10:41:56;;;;;;;1.95;1.75;;;;;;;17.19;48.41;99573.09;4984191;28;20221;-77
2022/09/17 10:44:24;;;;;;;3.45;1.80;;;;;;;17.12;48.64;99571.16;4982614;28;20205;-76
2022/09/17 10:46:51;;;;;;;1.98;1.35;;;;;;;17.02;48.96;99569.34;4982096;28;20213;-75
2022/09/17 10:49:30;;;;;;;2.72;1.45;;;;;;;17.09;48.72;99569.63;4983259;28;20565;-76
2022/09/17 10:52:09;;;;;;;2.97;1.30;;;;;;;17.12;48.51;99571.16;4983540;28;20220;-76
2022/09/17 10:55:04;;;;;;;2.15;1.38;;;;;;;17.07;48.41;99579.56;4982061;28;20238;-75
2022/09/17 10:57:53;;;;;;;5.72;2.15;;;;;;;16.96;48.51;99575.22;4982573;28;20236;-76
2022/09/17 11:00:22;;;;;;;4.53;1.35;;;;;;;16.83;49.10;99576.47;4981574;28;20717;-75
2022/09/17 11:02:53;;;;;;;2.40;1.65;;;;;;;16.76;49.44;99574.31;4983522;28;20197;-75
2022/09/17 11:06:00;;;;;;;1.98;1.20;;;;;;;16.72;49.22;99564.16;4980014;28;20190;-78
2022/09/17 11:08:29;;;;;;;1.33;1.05;;;;;;;16.74;48.92;99556.88;4982183;28;20208;-77
2022/09/17 11:11:10;;;;;;;3.20;1.40;;;;;;;16.76;48.35;99565.53;4983466;28;20194;-75
2022/09/17 11:13:47;;;;;;;2.78;1.55;;;;;;;16.79;47.98;99562.63;4981976;28;20670;-78
2022/09/17 11:16:41;;;;;;;3.30;2.20;;;;;;;16.85;47.89;99559.44;4979996;28;20213;-75
2022/09/17 11:19:25;;;;;;;2.50;1.17;;;;;;;16.90;47.84;99566.97;4945243;28;20192;-75
2022/09/17 11:22:11;;;;;;;1.80;1.23;;;;;;;16.88;47.72;99569.78;4983561;28;20200;-75
2022/09/17 11:24:47;;;;;;;1.40;1.05;;;;;;;16.85;47.83;99559.44;4983377;28;20223;-74
2022/09/17 11:27:31;;;;;;;1.40;1.30;;;;;;;16.78;47.91;99571.56;4982375;28;20207;-79
2022/09/17 11:30:07;;;;;;;1.98;1.42;;;;;;;16.76;48.17;99568.19;4981898;28;20196;-75
2022/09/17 11:32:40;;;;;;;3.15;1.10;;;;;;;16.77;47.93;99554.84;4983155;28;20231;-79
2022/09/17 11:35:10;;;;;;;4.55;1.45;;;;;;;16.78;47.78;99566.28;4982158;28;20197;-75
2022/09/17 11:37:50;;;;;;;2.03;1.45;;;;;;;16.81;47.80;99561.53;4982043;28;20490;-79
2022/09/17 11:40:22;;;;;;;1.65;1.33;;;;;;;16.89;47.62;99555.53;4981359;28;20224;-79
2022/09/17 11:42:59;;;;;;;1.70;1.00;;;;;;;17.01;47.21;99554.41;4979741;28;20235;-75
2022/09/17 11:45:33;;;;;;;0.98;0.88;;;;;;;17.13;46.82;99548.97;4984816;28;20374;-76
2022/09/17 11:48:17;;;;;;;1.83;1.10;;;;;;;17.21;46.69;99539.31;4985051;28;20196;-79
2022/09/17 11:50:51;;;;;;;2.50;1.15;;;;;;;17.32;46.52;99540.97;4985142;28;20619;-75
2022/09/17 11:53:41;;;;;;;2.97;1.40;;;;;;;17.45;46.66;99551.28;4986508;28;20227;-75
2022/09/17 11:56:32;;;;;;;2.85;1.25;;;;;;;17.50;46.28;99550.84;4985535;28;20231;-76